createdAt,value
2023-03-06T00:03:38.942Z,46.65
2023-03-06T00:08:40.482Z,46.26
2023-03-06T00:13:42.004Z,46.72
2023-03-06T00:18:44.077Z,46.40
2023-03-06T00:23:45.606Z,46.28
2023-03-06T00:28:47.103Z,46.78
2023-03-06T00:33:49.478Z,46.80
2023-03-06T00:38:51.916Z,46.48
2023-03-06T00:43:53.492Z,46.92
2023-03-06T00:48:54.981Z,46.49
2023-03-06T00:53:56.467Z,47.00
2023-03-06T00:58:59.204Z,47.14
2023-03-06T01:04:00.683Z,46.72
2023-03-06T01:09:02.303Z,46.82
2023-03-06T01:14:04.046Z,47.10
2023-03-06T01:19:05.608Z,47.01
2023-03-06T01:24:08.474Z,46.80
2023-03-06T01:29:10.036Z,47.00
2023-03-06T01:34:11.608Z,47.32
2023-03-06T01:39:13.121Z,47.35
2023-03-06T01:44:14.624Z,47.10
2023-03-06T01:49:20.200Z,47.25
2023-03-06T01:54:44.589Z,47.50
2023-03-06T01:59:49.397Z,47.49
2023-03-06T02:04:51.258Z,47.38
2023-03-06T02:09:53.230Z,47.72
2023-03-06T02:14:54.907Z,47.22
2023-03-06T02:20:07.711Z,47.37
2023-03-06T02:25:30.952Z,47.26
2023-03-06T02:30:32.753Z,47.52
2023-03-06T02:35:38.587Z,48.14
2023-03-06T02:40:43.556Z,47.16
2023-03-06T02:45:48.705Z,47.81
2023-03-06T02:50:50.385Z,47.78
2023-03-06T02:55:52.273Z,47.92
2023-03-06T03:00:55.118Z,47.42
2023-03-06T03:05:56.862Z,47.73
2023-03-06T03:11:04.247Z,47.89
2023-03-06T03:16:15.478Z,48.00
2023-03-06T03:21:17.830Z,47.84
2023-03-06T03:26:21.476Z,47.91
2023-03-06T03:31:30.148Z,47.88
2023-03-06T03:36:31.819Z,48.02
2023-03-06T03:41:34.170Z,47.78
2023-03-06T03:46:38.009Z,47.58
2023-03-06T03:51:44.313Z,48.13
2023-03-06T03:56:46.181Z,48.08
2023-03-06T04:01:56.010Z,47.90
2023-03-06T04:06:58.889Z,47.82
2023-03-06T04:12:00.503Z,48.19
2023-03-06T04:17:02.292Z,47.94
2023-03-06T04:22:03.957Z,48.01
2023-03-06T04:27:09.138Z,48.05
2023-03-06T04:32:11.185Z,47.87
2023-03-06T04:37:20.649Z,47.60
2023-03-06T04:42:22.748Z,47.36
2023-03-06T04:47:24.263Z,47.18
2023-03-06T04:52:25.801Z,47.54
2023-03-06T04:57:27.337Z,47.29
2023-03-06T05:02:28.868Z,47.58
2023-03-06T05:07:30.658Z,47.14
2023-03-06T05:12:35.027Z,47.55
2023-03-06T05:17:37.151Z,47.36
2023-03-06T05:22:38.808Z,47.18
2023-03-06T05:27:40.582Z,46.64
2023-03-06T05:32:42.721Z,47.36
2023-03-06T05:37:44.413Z,47.16
2023-03-06T05:42:46.049Z,47.12
2023-03-06T05:47:47.731Z,47.07
2023-03-06T05:52:49.494Z,46.93
2023-03-06T05:57:51.827Z,46.64
2023-03-06T06:02:53.416Z,47.03
2023-03-06T06:07:55.008Z,46.62
2023-03-06T06:12:56.495Z,46.74
2023-03-06T06:17:58.136Z,47.17
2023-03-06T06:22:59.646Z,46.97
2023-03-06T06:28:01.282Z,46.80
2023-03-06T06:33:02.820Z,47.08
2023-03-06T06:38:04.330Z,47.23
2023-03-06T06:43:05.883Z,46.82
2023-03-06T06:48:07.472Z,46.69
2023-03-06T06:53:08.996Z,46.92
2023-03-06T06:58:10.512Z,47.07
2023-03-06T07:03:13.025Z,47.28
2023-03-06T07:08:14.560Z,47.48
2023-03-06T07:13:16.139Z,47.45
2023-03-06T07:18:17.685Z,47.52
2023-03-06T07:23:19.295Z,47.52
2023-03-06T07:28:21.419Z,47.01
2023-03-06T07:33:23.132Z,47.54
2023-03-06T07:38:24.651Z,48.05
2023-03-06T07:43:26.146Z,47.97
2023-03-06T07:48:34.612Z,47.73
2023-03-06T07:53:36.119Z,48.01
2023-03-06T07:58:39.847Z,47.94
2023-03-06T08:03:41.830Z,47.85
2023-03-06T08:08:45.140Z,48.20
2023-03-06T08:13:48.703Z,47.87
2023-03-06T08:18:50.351Z,47.53
2023-03-06T08:23:51.942Z,47.45
2023-03-06T08:28:55.574Z,48.27
2023-03-06T08:33:59.197Z,47.91
2023-03-06T08:39:01.298Z,47.89
2023-03-06T08:44:03.259Z,48.37
2023-03-06T08:49:04.937Z,48.39
2023-03-06T08:54:06.690Z,47.87
2023-03-06T08:59:09.413Z,47.90
2023-03-06T09:04:11.833Z,47.95
2023-03-06T09:09:13.896Z,47.66
2023-03-06T09:14:15.457Z,48.28
2023-03-06T09:19:16.990Z,47.49
2023-03-06T09:24:18.552Z,47.35
2023-03-06T09:29:20.100Z,47.42
2023-03-06T09:34:21.696Z,47.75
2023-03-06T09:39:24.002Z,47.77
2023-03-06T09:44:29.191Z,47.63
2023-03-06T09:49:45.901Z,47.10
2023-03-06T09:54:54.499Z,47.17
2023-03-06T10:00:02.061Z,47.12
2023-03-06T10:05:13.107Z,47.11
2023-03-06T10:10:24.620Z,46.78
2023-03-06T10:15:32.135Z,47.24
2023-03-06T10:20:45.271Z,46.39
2023-03-06T10:26:01.183Z,46.70
2023-03-06T10:31:26.564Z,45.89
2023-03-06T10:36:28.862Z,46.00
2023-03-06T10:41:32.643Z,45.58
2023-03-06T10:46:37.219Z,45.06
2023-03-06T10:51:38.756Z,44.96
2023-03-06T10:56:42.925Z,44.47
2023-03-06T11:01:49.050Z,44.50
2023-03-06T11:07:15.396Z,44.15
2023-03-06T11:12:23.020Z,43.84
2023-03-06T11:17:29.713Z,43.77
2023-03-06T11:22:31.564Z,43.57
2023-03-06T11:27:38.446Z,43.92
2023-03-06T11:32:50.327Z,43.79
2023-03-06T11:38:32.182Z,43.04
2023-03-06T11:43:52.729Z,43.38
2023-03-06T11:49:04.787Z,43.19
2023-03-06T11:54:09.569Z,42.63
2023-03-06T11:59:35.598Z,42.36
2023-03-06T12:05:01.122Z,42.27
2023-03-06T12:10:19.197Z,42.31
2023-03-06T12:15:41.799Z,42.12
2023-03-06T12:21:05.555Z,42.35
2023-03-06T12:26:38.053Z,42.30
2023-03-06T12:31:52.721Z,42.68
2023-03-06T12:37:21.538Z,43.23
2023-03-06T12:42:36.719Z,42.98
2023-03-06T12:47:44.367Z,43.20
2023-03-06T12:52:47.514Z,43.18
2023-03-06T12:57:49.530Z,43.84
2023-03-06T13:03:00.815Z,44.40
2023-03-06T13:08:24.899Z,45.19
2023-03-06T13:13:33.075Z,45.35
2023-03-06T13:18:34.646Z,45.47
2023-03-06T13:23:51.434Z,45.74
2023-03-06T13:28:55.447Z,45.21
2023-03-06T13:34:19.893Z,45.38
2023-03-06T13:39:21.436Z,44.97
2023-03-06T13:44:26.155Z,45.01
2023-03-06T13:49:29.113Z,45.19
2023-03-06T13:54:56.484Z,45.55
2023-03-06T14:00:16.819Z,45.36
2023-03-06T14:05:19.054Z,45.56
2023-03-06T14:10:24.562Z,45.40
2023-03-06T14:15:42.840Z,45.17
2023-03-06T14:21:00.164Z,45.61
2023-03-06T14:26:17.699Z,45.73
2023-03-06T14:31:29.110Z,45.48
2023-03-06T14:36:35.518Z,45.73
2023-03-06T14:41:37.670Z,45.97
2023-03-06T14:46:39.538Z,46.03
2023-03-06T14:51:43.877Z,46.02
2023-03-06T14:56:48.709Z,45.44
2023-03-06T15:01:56.199Z,45.49
2023-03-06T15:06:58.796Z,46.16
2023-03-06T15:12:07.899Z,46.14
2023-03-06T15:17:18.515Z,46.05
2023-03-06T15:22:38.006Z,45.54
2023-03-06T15:27:39.916Z,45.93
2023-03-06T15:32:42.893Z,45.97
2023-03-06T15:37:44.738Z,45.83
2023-03-06T15:42:47.015Z,45.14
2023-03-06T15:47:50.718Z,45.28
2023-03-06T15:52:53.472Z,44.93
2023-03-06T15:58:00.819Z,44.74
2023-03-06T16:03:03.349Z,44.93
2023-03-06T16:08:05.853Z,44.50
2023-03-06T16:13:12.614Z,44.30
2023-03-06T16:18:14.250Z,44.43
2023-03-06T16:23:16.411Z,44.20
2023-03-06T16:28:18.176Z,44.07
2023-03-06T16:33:19.718Z,43.70
2023-03-06T16:38:21.284Z,43.70
2023-03-06T16:43:22.774Z,44.12
2023-03-06T16:48:24.341Z,43.82
2023-03-06T16:53:26.141Z,43.92
2023-03-06T16:58:28.370Z,43.29
2023-03-06T17:03:29.844Z,43.50
2023-03-06T17:08:31.337Z,43.39
2023-03-06T17:13:32.900Z,43.24
2023-03-06T17:18:34.552Z,43.57
2023-03-06T17:23:36.969Z,43.74
2023-03-06T17:28:39.258Z,44.40
2023-03-06T17:33:40.882Z,44.50
2023-03-06T17:38:43.289Z,45.35
2023-03-06T17:43:44.799Z,45.18
2023-03-06T17:48:46.692Z,45.51
2023-03-06T17:53:49.301Z,45.42
2023-03-06T17:58:50.878Z,45.57
2023-03-06T18:03:52.680Z,45.82
2023-03-06T18:08:54.591Z,46.00
2023-03-06T18:13:56.225Z,45.80
2023-03-06T18:18:57.849Z,45.31
2023-03-06T18:23:59.486Z,45.46
2023-03-06T18:29:05.816Z,45.76
2023-03-06T18:34:10.521Z,45.86
2023-03-06T18:39:13.792Z,46.06
2023-03-06T18:44:17.368Z,45.57
2023-03-06T18:49:18.997Z,45.97
2023-03-06T18:54:20.751Z,45.94
2023-03-06T18:59:22.470Z,45.77
2023-03-06T19:04:25.599Z,45.87
2023-03-06T19:09:27.165Z,46.05
2023-03-06T19:14:28.805Z,45.35
2023-03-06T19:19:30.405Z,45.52
2023-03-06T19:24:32.481Z,45.52
2023-03-06T19:29:34.096Z,45.31
2023-03-06T19:34:35.615Z,45.34
2023-03-06T19:39:37.086Z,46.01
2023-03-06T19:44:38.635Z,45.92
2023-03-06T19:49:40.358Z,45.75
2023-03-06T19:54:42.372Z,45.64
2023-03-06T19:59:44.026Z,45.84
2023-03-06T20:04:46.667Z,45.57
2023-03-06T20:09:48.286Z,46.06
2023-03-06T20:14:49.910Z,45.96
2023-03-06T20:19:51.541Z,45.41
2023-03-06T20:24:53.284Z,46.15
2023-03-06T20:29:54.850Z,46.01
2023-03-06T20:34:56.360Z,46.09
2023-03-06T20:39:57.917Z,46.00
2023-03-06T20:44:59.447Z,46.17
2023-03-06T20:50:01.062Z,46.21
2023-03-06T20:55:02.882Z,46.09
2023-03-06T21:00:06.562Z,46.21
2023-03-06T21:05:08.638Z,46.71
2023-03-06T21:10:10.797Z,47.15
2023-03-06T21:15:12.975Z,47.29
2023-03-06T21:20:14.684Z,46.80
2023-03-06T21:25:16.453Z,46.62
2023-03-06T21:30:18.245Z,47.05
2023-03-06T21:35:20.282Z,47.27
2023-03-06T21:40:21.776Z,46.93
2023-03-06T21:45:23.362Z,47.32
2023-03-06T21:50:25.800Z,46.87
2023-03-06T21:55:27.517Z,46.94
2023-03-06T22:00:29.036Z,47.35
2023-03-06T22:05:31.867Z,46.81
2023-03-06T22:10:33.381Z,47.17
2023-03-06T22:15:34.931Z,47.72
2023-03-06T22:20:39.443Z,47.96
2023-03-06T22:25:41.183Z,47.71
2023-03-06T22:30:42.890Z,47.81
2023-03-06T22:35:44.381Z,47.06
2023-03-06T22:40:45.875Z,48.00
2023-03-06T22:45:47.392Z,47.96
2023-03-06T22:50:49.008Z,47.71
2023-03-06T22:55:50.741Z,47.73
2023-03-06T23:00:52.621Z,47.89
2023-03-06T23:05:54.231Z,47.80
2023-03-06T23:10:55.728Z,47.94
2023-03-06T23:16:15.847Z,48.31
2023-03-06T23:21:36.318Z,48.02
2023-03-06T23:26:56.338Z,48.15
2023-03-06T23:31:57.917Z,48.06
2023-03-06T23:36:59.563Z,48.30
2023-03-06T23:42:01.450Z,48.71
2023-03-06T23:47:02.957Z,47.92
2023-03-06T23:52:04.700Z,48.31
2023-03-06T23:57:06.728Z,48.54
